createdAt,value
2023-06-23T00:08:42.731Z,83.07
2023-06-23T00:18:42.665Z,83.03
2023-06-23T00:28:42.858Z,84.37
2023-06-23T00:38:43.004Z,86.42
2023-06-23T00:48:43.201Z,95.73
2023-06-23T00:58:43.459Z,99.99
2023-06-23T01:08:43.570Z,99.99
2023-06-23T01:18:43.722Z,99.99
2023-06-23T01:28:43.912Z,99.99
2023-06-23T01:38:44.065Z,99.99
2023-06-23T01:48:44.266Z,99.99
2023-06-23T01:58:44.416Z,99.99
2023-06-23T02:08:44.594Z,99.99
2023-06-23T02:18:44.788Z,99.99
2023-06-23T02:28:44.945Z,99.99
2023-06-23T02:38:45.089Z,99.99
2023-06-23T02:48:45.314Z,99.99
2023-06-23T02:58:45.471Z,99.99
2023-06-23T03:08:45.876Z,99.99
2023-06-23T03:18:45.803Z,99.99
2023-06-23T03:28:46.011Z,99.99
2023-06-23T03:38:46.387Z,99.99
2023-06-23T03:48:46.416Z,99.99
2023-06-23T03:58:46.581Z,99.99
2023-06-23T04:08:46.784Z,99.99
2023-06-23T04:18:46.915Z,99.99
2023-06-23T04:28:47.171Z,99.99
2023-06-23T04:38:47.430Z,99.99
2023-06-23T04:48:47.413Z,99.99
2023-06-23T04:58:47.568Z,99.99
2023-06-23T05:08:48.037Z,99.99
2023-06-23T05:18:47.980Z,99.53
2023-06-23T05:28:48.541Z,98.43
2023-06-23T05:38:48.498Z,97.82
2023-06-23T05:48:48.782Z,96.47
2023-06-23T05:58:49.050Z,94.60
2023-06-23T06:08:48.932Z,93.31
2023-06-23T06:18:49.093Z,92.46
2023-06-23T06:28:49.320Z,91.35
2023-06-23T06:38:49.496Z,91.09
2023-06-23T06:48:49.709Z,90.29
2023-06-23T06:58:50.101Z,89.48
2023-06-23T07:08:50.083Z,88.45
2023-06-23T07:18:50.223Z,87.21
2023-06-23T07:28:50.654Z,85.86
2023-06-23T07:38:50.577Z,88.05
2023-06-23T07:48:50.795Z,85.92
2023-06-23T07:58:50.967Z,85.31
2023-06-23T08:08:51.451Z,80.94
2023-06-23T08:18:51.399Z,79.46
2023-06-23T08:28:51.501Z,76.41
2023-06-23T08:38:51.955Z,79.05
2023-06-23T08:48:51.904Z,73.30
2023-06-23T08:58:51.979Z,74.07
2023-06-23T09:08:52.202Z,73.54
2023-06-23T09:18:52.393Z,69.73
2023-06-23T09:28:52.754Z,72.26
2023-06-23T09:38:52.808Z,68.26
2023-06-23T09:48:53.048Z,65.17
2023-06-23T09:58:53.212Z,57.90
2023-06-23T10:08:53.570Z,64.73
2023-06-23T10:18:53.610Z,61.09
2023-06-23T10:28:53.823Z,64.19
2023-06-23T10:38:54.006Z,63.14
2023-06-23T10:48:54.227Z,56.64
2023-06-23T10:58:54.371Z,58.20
2023-06-23T11:08:54.629Z,56.25
2023-06-23T11:18:54.672Z,59.97
2023-06-23T11:28:55.005Z,60.50
2023-06-23T11:38:54.938Z,61.47
2023-06-23T11:48:55.160Z,57.83
2023-06-23T11:58:55.370Z,58.98
2023-06-23T12:08:55.524Z,57.28
2023-06-23T12:18:55.545Z,55.60
2023-06-23T12:28:55.759Z,54.30
2023-06-23T12:38:55.930Z,55.41
2023-06-23T12:48:56.243Z,58.42
2023-06-23T12:58:56.378Z,51.28
2023-06-23T13:08:56.478Z,52.37
2023-06-23T13:18:56.670Z,53.46
2023-06-23T13:28:56.776Z,51.10
2023-06-23T13:38:56.947Z,57.93
2023-06-23T13:48:57.151Z,56.90
2023-06-23T13:58:57.479Z,59.69
2023-06-23T14:08:57.451Z,57.35
2023-06-23T14:18:57.618Z,50.23
2023-06-23T14:28:57.835Z,52.00
2023-06-23T14:38:57.962Z,50.58
2023-06-23T14:48:58.561Z,45.43
2023-06-23T14:58:58.398Z,48.48
2023-06-23T15:08:58.595Z,53.34
2023-06-23T15:18:58.747Z,53.86
2023-06-23T15:28:58.941Z,48.85
2023-06-23T15:39:00.309Z,48.31
2023-06-23T15:48:59.393Z,47.58
2023-06-23T15:58:59.466Z,47.12
2023-06-23T16:08:59.876Z,45.81
2023-06-23T16:18:59.803Z,48.84
2023-06-23T16:29:00.115Z,53.76
2023-06-23T16:39:00.166Z,54.06
2023-06-23T16:49:00.378Z,55.63
2023-06-23T16:59:00.537Z,52.99
2023-06-23T17:09:00.987Z,44.87
2023-06-23T17:19:01.201Z,48.28
2023-06-23T17:29:01.051Z,51.45
2023-06-23T17:39:01.217Z,56.95
2023-06-23T17:49:01.426Z,58.85
2023-06-23T17:59:01.607Z,58.38
2023-06-23T18:09:02.021Z,58.81
2023-06-23T18:19:01.956Z,59.81
2023-06-23T18:29:02.191Z,52.91
2023-06-23T18:39:02.338Z,60.65
2023-06-23T18:49:02.574Z,65.05
2023-06-23T18:59:02.731Z,66.68
2023-06-23T19:09:02.929Z,66.64
2023-06-23T19:19:03.091Z,67.58
2023-06-23T19:29:03.334Z,69.56
2023-06-23T19:39:03.425Z,71.63
2023-06-23T19:49:04.773Z,74.96
2023-06-23T19:59:03.814Z,76.31
2023-06-23T20:09:04.002Z,75.34
2023-06-23T20:19:04.164Z,74.08
2023-06-23T20:29:04.357Z,76.54
2023-06-23T20:39:04.506Z,73.58
2023-06-23T20:49:04.730Z,75.10
2023-06-23T20:59:04.914Z,75.54
2023-06-23T21:09:05.108Z,76.18
2023-06-23T21:19:05.413Z,77.28
2023-06-23T21:29:05.549Z,76.07
2023-06-23T21:39:05.665Z,77.69
2023-06-23T21:49:05.769Z,77.19
2023-06-23T21:59:06.274Z,75.98
2023-06-23T22:09:06.061Z,77.08
2023-06-23T22:19:06.559Z,77.62
2023-06-23T22:29:06.346Z,71.84
2023-06-23T22:39:06.497Z,74.59
2023-06-23T22:49:06.708Z,79.00
2023-06-23T22:59:06.883Z,80.49
2023-06-23T23:09:07.097Z,80.73
2023-06-23T23:19:07.265Z,84.25
2023-06-23T23:29:07.443Z,84.83
2023-06-23T23:39:07.639Z,87.66
2023-06-23T23:49:07.846Z,89.39
2023-06-23T23:59:07.916Z,88.11
